sensor_id;sensor_type;location;lat;lon;timestamp;temperature;humidity
11497;DHT22;5805;51.542;7.230;2022-10-30T00:00:12;20.60;96.00
11497;DHT22;5805;51.542;7.230;2022-10-30T00:02:38;20.60;95.70
11497;DHT22;5805;51.542;7.230;2022-10-30T00:05:06;20.60;96.00
11497;DHT22;5805;51.542;7.230;2022-10-30T00:07:32;20.60;95.80
11497;DHT22;5805;51.542;7.230;2022-10-30T00:09:58;20.60;96.10
11497;DHT22;5805;51.542;7.230;2022-10-30T00:12:24;20.60;96.20
11497;DHT22;5805;51.542;7.230;2022-10-30T00:14:49;20.60;96.10
11497;DHT22;5805;51.542;7.230;2022-10-30T00:17:15;20.60;96.10
11497;DHT22;5805;51.542;7.230;2022-10-30T00:19:41;20.60;96.20
11497;DHT22;5805;51.542;7.230;2022-10-30T00:22:08;20.60;96.40
11497;DHT22;5805;51.542;7.230;2022-10-30T00:24:34;20.60;96.60
11497;DHT22;5805;51.542;7.230;2022-10-30T00:26:59;20.60;96.60
11497;DHT22;5805;51.542;7.230;2022-10-30T00:29:25;20.50;96.90
11497;DHT22;5805;51.542;7.230;2022-10-30T00:31:51;20.50;96.90
11497;DHT22;5805;51.542;7.230;2022-10-30T00:34:16;20.50;96.90
11497;DHT22;5805;51.542;7.230;2022-10-30T00:36:42;20.50;96.90
11497;DHT22;5805;51.542;7.230;2022-10-30T00:39:09;20.50;97.00
11497;DHT22;5805;51.542;7.230;2022-10-30T00:41:35;20.40;97.10
11497;DHT22;5805;51.542;7.230;2022-10-30T00:44:01;20.40;97.10
11497;DHT22;5805;51.542;7.230;2022-10-30T00:46:30;20.40;97.40
11497;DHT22;5805;51.542;7.230;2022-10-30T00:49:01;20.40;97.50
11497;DHT22;5805;51.542;7.230;2022-10-30T00:51:28;20.40;97.80
11497;DHT22;5805;51.542;7.230;2022-10-30T00:53:56;20.30;97.90
11497;DHT22;5805;51.542;7.230;2022-10-30T00:56:25;20.30;98.20
11497;DHT22;5805;51.542;7.230;2022-10-30T00:58:54;20.30;98.20
11497;DHT22;5805;51.542;7.230;2022-10-30T01:01:24;20.30;98.40
11497;DHT22;5805;51.542;7.230;2022-10-30T01:03:53;20.30;98.70
11497;DHT22;5805;51.542;7.230;2022-10-30T01:06:21;20.20;99.10
11497;DHT22;5805;51.542;7.230;2022-10-30T01:08:47;20.20;99.50
11497;DHT22;5805;51.542;7.230;2022-10-30T01:11:13;20.20;99.60
11497;DHT22;5805;51.542;7.230;2022-10-30T01:13:42;20.20;99.70
11497;DHT22;5805;51.542;7.230;2022-10-30T01:16:37;20.10;99.80
11497;DHT22;5805;51.542;7.230;2022-10-30T01:19:11;20.10;99.90
11497;DHT22;5805;51.542;7.230;2022-10-30T01:21:50;20.10;99.80
11497;DHT22;5805;51.542;7.230;2022-10-30T01:24:30;20.10;99.90
11497;DHT22;5805;51.542;7.230;2022-10-30T01:27:10;20.00;99.90
11497;DHT22;5805;51.542;7.230;2022-10-30T01:29:49;19.90;99.90
11497;DHT22;5805;51.542;7.230;2022-10-30T01:32:30;19.90;99.90
11497;DHT22;5805;51.542;7.230;2022-10-30T01:35:05;19.90;99.90
11497;DHT22;5805;51.542;7.230;2022-10-30T01:37:33;19.90;99.90
11497;DHT22;5805;51.542;7.230;2022-10-30T01:40:04;19.90;99.90
11497;DHT22;5805;51.542;7.230;2022-10-30T01:42:47;19.80;99.90
11497;DHT22;5805;51.542;7.230;2022-10-30T01:45:21;19.70;99.90
11497;DHT22;5805;51.542;7.230;2022-10-30T01:48:01;19.70;99.90
11497;DHT22;5805;51.542;7.230;2022-10-30T01:50:37;19.60;99.90
11497;DHT22;5805;51.542;7.230;2022-10-30T01:53:13;19.60;99.90
11497;DHT22;5805;51.542;7.230;2022-10-30T01:55:47;19.60;99.90
11497;DHT22;5805;51.542;7.230;2022-10-30T01:58:19;19.60;99.90
11497;DHT22;5805;51.542;7.230;2022-10-30T02:00:52;19.50;99.90
11497;DHT22;5805;51.542;7.230;2022-10-30T02:03:20;19.50;99.90
11497;DHT22;5805;51.542;7.230;2022-10-30T02:05:48;19.50;99.90
11497;DHT22;5805;51.542;7.230;2022-10-30T02:08:14;19.40;99.90
11497;DHT22;5805;51.542;7.230;2022-10-30T02:10:40;19.40;99.90
11497;DHT22;5805;51.542;7.230;2022-10-30T02:13:07;19.40;99.90
11497;DHT22;5805;51.542;7.230;2022-10-30T02:15:33;19.40;99.90
11497;DHT22;5805;51.542;7.230;2022-10-30T02:18:00;19.40;99.90
11497;DHT22;5805;51.542;7.230;2022-10-30T02:20:27;19.40;99.90
11497;DHT22;5805;51.542;7.230;2022-10-30T02:22:53;19.40;99.90
11497;DHT22;5805;51.542;7.230;2022-10-30T02:25:19;19.40;99.90
11497;DHT22;5805;51.542;7.230;2022-10-30T02:27:45;19.40;99.90
11497;DHT22;5805;51.542;7.230;2022-10-30T02:30:11;19.70;99.90
11497;DHT22;5805;51.542;7.230;2022-10-30T02:32:37;19.50;99.90
11497;DHT22;5805;51.542;7.230;2022-10-30T02:35:03;19.50;99.90
11497;DHT22;5805;51.542;7.230;2022-10-30T02:37:31;19.50;99.90
11497;DHT22;5805;51.542;7.230;2022-10-30T02:39:56;19.50;99.90
11497;DHT22;5805;51.542;7.230;2022-10-30T02:42:22;19.50;99.90
11497;DHT22;5805;51.542;7.230;2022-10-30T02:44:48;19.50;99.90
11497;DHT22;5805;51.542;7.230;2022-10-30T02:47:13;19.50;99.90
11497;DHT22;5805;51.542;7.230;2022-10-30T02:49:39;19.50;99.90
11497;DHT22;5805;51.542;7.230;2022-10-30T02:52:06;19.50;99.90
11497;DHT22;5805;51.542;7.230;2022-10-30T02:54:33;19.40;99.90
11497;DHT22;5805;51.542;7.230;2022-10-30T02:56:58;19.40;99.90
11497;DHT22;5805;51.542;7.230;2022-10-30T02:59:24;19.40;99.90
11497;DHT22;5805;51.542;7.230;2022-10-30T03:01:50;19.30;99.90
11497;DHT22;5805;51.542;7.230;2022-10-30T03:04:15;19.30;99.90
11497;DHT22;5805;51.542;7.230;2022-10-30T03:06:41;19.30;99.90
11497;DHT22;5805;51.542;7.230;2022-10-30T03:09:07;19.20;99.90
11497;DHT22;5805;51.542;7.230;2022-10-30T03:11:34;19.20;99.90
11497;DHT22;5805;51.542;7.230;2022-10-30T03:14:00;19.10;99.90
11497;DHT22;5805;51.542;7.230;2022-10-30T03:16:27;19.10;99.90
11497;DHT22;5805;51.542;7.230;2022-10-30T03:18:54;19.00;99.90
11497;DHT22;5805;51.542;7.230;2022-10-30T03:21:22;19.00;99.90
11497;DHT22;5805;51.542;7.230;2022-10-30T03:23:48;18.90;99.90
11497;DHT22;5805;51.542;7.230;2022-10-30T03:26:13;18.90;99.90
11497;DHT22;5805;51.542;7.230;2022-10-30T03:28:40;19.50;99.90
11497;DHT22;5805;51.542;7.230;2022-10-30T03:31:08;18.90;99.90
11497;DHT22;5805;51.542;7.230;2022-10-30T03:33:35;19.00;99.90
11497;DHT22;5805;51.542;7.230;2022-10-30T03:36:01;18.70;99.90
11497;DHT22;5805;51.542;7.230;2022-10-30T03:38:27;18.70;99.90
11497;DHT22;5805;51.542;7.230;2022-10-30T03:40:54;18.60;99.90
11497;DHT22;5805;51.542;7.230;2022-10-30T03:43:19;18.60;99.90
11497;DHT22;5805;51.542;7.230;2022-10-30T03:45:48;18.50;99.90
11497;DHT22;5805;51.542;7.230;2022-10-30T03:48:14;18.50;99.90
11497;DHT22;5805;51.542;7.230;2022-10-30T03:50:40;18.60;99.90
11497;DHT22;5805;51.542;7.230;2022-10-30T03:53:06;18.50;99.90
11497;DHT22;5805;51.542;7.230;2022-10-30T03:55:32;18.60;99.90
11497;DHT22;5805;51.542;7.230;2022-10-30T03:57:57;18.60;99.90
11497;DHT22;5805;51.542;7.230;2022-10-30T04:00:23;19.40;99.90
11497;DHT22;5805;51.542;7.230;2022-10-30T04:02:51;18.90;99.90
11497;DHT22;5805;51.542;7.230;2022-10-30T04:05:19;18.50;99.90
11497;DHT22;5805;51.542;7.230;2022-10-30T04:07:45;19.40;99.90
11497;DHT22;5805;51.542;7.230;2022-10-30T04:10:12;18.40;99.90
11497;DHT22;5805;51.542;7.230;2022-10-30T04:12:38;18.30;99.90
11497;DHT22;5805;51.542;7.230;2022-10-30T04:15:05;19.90;99.90
11497;DHT22;5805;51.542;7.230;2022-10-30T04:17:31;18.10;99.90
11497;DHT22;5805;51.542;7.230;2022-10-30T04:19:58;18.10;99.90
11497;DHT22;5805;51.542;7.230;2022-10-30T04:22:24;18.00;99.90
11497;DHT22;5805;51.542;7.230;2022-10-30T04:24:50;18.00;99.90
11497;DHT22;5805;51.542;7.230;2022-10-30T04:27:16;17.90;99.90
11497;DHT22;5805;51.542;7.230;2022-10-30T04:29:42;17.80;99.90
11497;DHT22;5805;51.542;7.230;2022-10-30T04:32:08;17.80;99.90
11497;DHT22;5805;51.542;7.230;2022-10-30T04:34:33;17.80;99.90
11497;DHT22;5805;51.542;7.230;2022-10-30T04:37:01;17.80;99.90
11497;DHT22;5805;51.542;7.230;2022-10-30T04:39:26;17.70;99.90
11497;DHT22;5805;51.542;7.230;2022-10-30T04:41:52;17.60;99.90
11497;DHT22;5805;51.542;7.230;2022-10-30T04:44:18;17.70;99.90
11497;DHT22;5805;51.542;7.230;2022-10-30T04:46:43;17.40;99.90
11497;DHT22;5805;51.542;7.230;2022-10-30T04:49:09;17.40;99.90
11497;DHT22;5805;51.542;7.230;2022-10-30T04:51:35;17.30;99.90
11497;DHT22;5805;51.542;7.230;2022-10-30T04:54:02;17.30;99.90
11497;DHT22;5805;51.542;7.230;2022-10-30T04:56:27;17.20;99.90
11497;DHT22;5805;51.542;7.230;2022-10-30T04:58:53;19.20;99.90
11497;DHT22;5805;51.542;7.230;2022-10-30T05:01:19;17.20;99.90
11497;DHT22;5805;51.542;7.230;2022-10-30T05:03:45;17.50;99.90
11497;DHT22;5805;51.542;7.230;2022-10-30T05:06:18;17.80;99.90
11497;DHT22;5805;51.542;7.230;2022-10-30T05:08:45;18.00;99.90
11497;DHT22;5805;51.542;7.230;2022-10-30T05:11:12;17.20;99.90
11497;DHT22;5805;51.542;7.230;2022-10-30T05:13:38;17.40;99.90
11497;DHT22;5805;51.542;7.230;2022-10-30T05:16:04;19.30;99.90
11497;DHT22;5805;51.542;7.230;2022-10-30T05:18:30;17.00;99.90
11497;DHT22;5805;51.542;7.230;2022-10-30T05:20:55;16.90;99.90
11497;DHT22;5805;51.542;7.230;2022-10-30T05:23:21;18.40;99.90
11497;DHT22;5805;51.542;7.230;2022-10-30T05:25:47;16.90;99.90
11497;DHT22;5805;51.542;7.230;2022-10-30T05:28:14;16.70;99.90
11497;DHT22;5805;51.542;7.230;2022-10-30T05:30:39;16.80;99.90
11497;DHT22;5805;51.542;7.230;2022-10-30T05:33:08;18.90;99.90
11497;DHT22;5805;51.542;7.230;2022-10-30T05:35:34;16.70;99.90
11497;DHT22;5805;51.542;7.230;2022-10-30T05:38:01;18.90;99.90
11497;DHT22;5805;51.542;7.230;2022-10-30T05:40:27;16.90;99.90
11497;DHT22;5805;51.542;7.230;2022-10-30T05:42:53;18.10;99.90
11497;DHT22;5805;51.542;7.230;2022-10-30T05:45:20;16.70;99.90
11497;DHT22;5805;51.542;7.230;2022-10-30T05:47:53;18.10;99.90
11497;DHT22;5805;51.542;7.230;2022-10-30T05:50:19;16.60;99.90
11497;DHT22;5805;51.542;7.230;2022-10-30T05:52:44;18.60;99.90
11497;DHT22;5805;51.542;7.230;2022-10-30T05:55:10;17.60;99.90
11497;DHT22;5805;51.542;7.230;2022-10-30T05:57:36;16.60;99.90
11497;DHT22;5805;51.542;7.230;2022-10-30T06:00:02;16.50;99.90
11497;DHT22;5805;51.542;7.230;2022-10-30T06:02:29;16.40;99.90
11497;DHT22;5805;51.542;7.230;2022-10-30T06:04:55;16.40;99.90
11497;DHT22;5805;51.542;7.230;2022-10-30T06:07:21;17.60;99.90
11497;DHT22;5805;51.542;7.230;2022-10-30T06:09:46;16.40;99.90
11497;DHT22;5805;51.542;7.230;2022-10-30T06:12:12;18.90;99.90
11497;DHT22;5805;51.542;7.230;2022-10-30T06:14:38;16.40;99.90
11497;DHT22;5805;51.542;7.230;2022-10-30T06:17:03;16.40;99.90
11497;DHT22;5805;51.542;7.230;2022-10-30T06:19:30;18.40;99.90
11497;DHT22;5805;51.542;7.230;2022-10-30T06:21:56;18.70;99.90
11497;DHT22;5805;51.542;7.230;2022-10-30T06:24:22;16.30;99.90
11497;DHT22;5805;51.542;7.230;2022-10-30T06:26:47;18.30;99.90
11497;DHT22;5805;51.542;7.230;2022-10-30T06:29:13;16.30;99.90
11497;DHT22;5805;51.542;7.230;2022-10-30T06:31:39;18.30;99.90
11497;DHT22;5805;51.542;7.230;2022-10-30T06:34:05;19.10;99.90
11497;DHT22;5805;51.542;7.230;2022-10-30T06:36:32;18.40;99.90
11497;DHT22;5805;51.542;7.230;2022-10-30T06:38:57;19.20;99.90
11497;DHT22;5805;51.542;7.230;2022-10-30T06:41:23;16.30;99.90
11497;DHT22;5805;51.542;7.230;2022-10-30T06:43:49;18.60;99.90
11497;DHT22;5805;51.542;7.230;2022-10-30T06:46:14;16.40;99.90
11497;DHT22;5805;51.542;7.230;2022-10-30T06:48:40;16.40;99.90
11497;DHT22;5805;51.542;7.230;2022-10-30T06:51:06;16.40;99.90
11497;DHT22;5805;51.542;7.230;2022-10-30T06:53:33;16.40;99.90
11497;DHT22;5805;51.542;7.230;2022-10-30T06:56:00;17.10;99.90
11497;DHT22;5805;51.542;7.230;2022-10-30T06:58:27;17.30;99.90
11497;DHT22;5805;51.542;7.230;2022-10-30T07:00:53;16.40;99.90
11497;DHT22;5805;51.542;7.230;2022-10-30T07:03:19;18.60;99.90
11497;DHT22;5805;51.542;7.230;2022-10-30T07:05:45;16.30;99.90
11497;DHT22;5805;51.542;7.230;2022-10-30T07:08:11;18.50;99.90
11497;DHT22;5805;51.542;7.230;2022-10-30T07:10:38;17.90;99.90
11497;DHT22;5805;51.542;7.230;2022-10-30T07:13:03;16.40;99.90
11497;DHT22;5805;51.542;7.230;2022-10-30T07:15:29;16.50;99.90
11497;DHT22;5805;51.542;7.230;2022-10-30T07:17:56;17.10;99.90
11497;DHT22;5805;51.542;7.230;2022-10-30T07:20:21;16.60;99.90
11497;DHT22;5805;51.542;7.230;2022-10-30T07:22:47;18.00;99.90
11497;DHT22;5805;51.542;7.230;2022-10-30T07:25:13;16.70;99.90
11497;DHT22;5805;51.542;7.230;2022-10-30T07:27:44;16.70;99.90
11497;DHT22;5805;51.542;7.230;2022-10-30T07:30:11;20.00;99.90
11497;DHT22;5805;51.542;7.230;2022-10-30T07:32:38;16.80;99.90
11497;DHT22;5805;51.542;7.230;2022-10-30T07:35:04;16.90;99.90
11497;DHT22;5805;51.542;7.230;2022-10-30T07:37:30;17.00;99.90
11497;DHT22;5805;51.542;7.230;2022-10-30T07:39:56;17.90;99.90
11497;DHT22;5805;51.542;7.230;2022-10-30T07:42:22;18.50;99.90
11497;DHT22;5805;51.542;7.230;2022-10-30T07:44:49;17.10;99.90
11497;DHT22;5805;51.542;7.230;2022-10-30T07:47:15;18.30;99.90
11497;DHT22;5805;51.542;7.230;2022-10-30T07:49:40;17.30;99.90
11497;DHT22;5805;51.542;7.230;2022-10-30T07:52:06;17.30;99.90
11497;DHT22;5805;51.542;7.230;2022-10-30T07:54:32;17.60;99.90
11497;DHT22;5805;51.542;7.230;2022-10-30T07:56:57;17.40;99.90
11497;DHT22;5805;51.542;7.230;2022-10-30T07:59:23;18.20;99.90
11497;DHT22;5805;51.542;7.230;2022-10-30T08:01:50;18.60;99.90
11497;DHT22;5805;51.542;7.230;2022-10-30T08:04:16;17.50;99.90
11497;DHT22;5805;51.542;7.230;2022-10-30T08:06:42;17.60;99.90
11497;DHT22;5805;51.542;7.230;2022-10-30T08:09:08;17.60;99.90
11497;DHT22;5805;51.542;7.230;2022-10-30T08:11:34;17.60;99.90
11497;DHT22;5805;51.542;7.230;2022-10-30T08:14:00;17.70;99.90
11497;DHT22;5805;51.542;7.230;2022-10-30T08:16:26;17.70;99.90
11497;DHT22;5805;51.542;7.230;2022-10-30T08:18:53;17.80;99.90
11497;DHT22;5805;51.542;7.230;2022-10-30T08:21:19;17.90;99.90
11497;DHT22;5805;51.542;7.230;2022-10-30T08:23:44;17.90;99.90
11497;DHT22;5805;51.542;7.230;2022-10-30T08:26:10;18.00;99.90
11497;DHT22;5805;51.542;7.230;2022-10-30T08:28:36;18.00;99.90
11497;DHT22;5805;51.542;7.230;2022-10-30T08:31:02;18.10;99.90
11497;DHT22;5805;51.542;7.230;2022-10-30T08:33:28;18.20;99.90
11497;DHT22;5805;51.542;7.230;2022-10-30T08:35:56;18.30;99.90
11497;DHT22;5805;51.542;7.230;2022-10-30T08:38:23;18.40;99.90
11497;DHT22;5805;51.542;7.230;2022-10-30T08:40:49;18.60;99.90
11497;DHT22;5805;51.542;7.230;2022-10-30T08:43:14;18.70;99.90
11497;DHT22;5805;51.542;7.230;2022-10-30T08:45:41;18.80;99.90
11497;DHT22;5805;51.542;7.230;2022-10-30T08:48:08;19.40;99.90
11497;DHT22;5805;51.542;7.230;2022-10-30T08:50:34;19.00;99.90
11497;DHT22;5805;51.542;7.230;2022-10-30T08:53:03;19.20;99.90
11497;DHT22;5805;51.542;7.230;2022-10-30T08:55:29;19.30;99.90
11497;DHT22;5805;51.542;7.230;2022-10-30T08:57:55;19.40;99.90
11497;DHT22;5805;51.542;7.230;2022-10-30T09:00:21;19.60;99.90
11497;DHT22;5805;51.542;7.230;2022-10-30T09:02:47;19.80;99.90
11497;DHT22;5805;51.542;7.230;2022-10-30T09:05:13;19.90;99.90
11497;DHT22;5805;51.542;7.230;2022-10-30T09:07:38;20.10;99.90
11497;DHT22;5805;51.542;7.230;2022-10-30T09:10:06;20.30;99.90
11497;DHT22;5805;51.542;7.230;2022-10-30T09:12:32;20.40;99.90
11497;DHT22;5805;51.542;7.230;2022-10-30T09:14:58;20.50;99.90
11497;DHT22;5805;51.542;7.230;2022-10-30T09:17:23;20.60;99.90
11497;DHT22;5805;51.542;7.230;2022-10-30T09:19:49;20.70;99.90
11497;DHT22;5805;51.542;7.230;2022-10-30T09:22:15;20.90;99.90
11497;DHT22;5805;51.542;7.230;2022-10-30T09:24:40;20.90;99.90
11497;DHT22;5805;51.542;7.230;2022-10-30T09:27:07;21.00;99.90
11497;DHT22;5805;51.542;7.230;2022-10-30T09:29:33;21.10;99.90
11497;DHT22;5805;51.542;7.230;2022-10-30T09:31:59;21.20;99.90
11497;DHT22;5805;51.542;7.230;2022-10-30T09:34:25;21.40;99.90
11497;DHT22;5805;51.542;7.230;2022-10-30T09:36:51;21.50;99.90
11497;DHT22;5805;51.542;7.230;2022-10-30T09:39:17;21.60;99.90
11497;DHT22;5805;51.542;7.230;2022-10-30T09:42:02;21.70;99.90
11497;DHT22;5805;51.542;7.230;2022-10-30T09:44:43;21.80;99.90
11497;DHT22;5805;51.542;7.230;2022-10-30T09:47:23;21.90;99.90
11497;DHT22;5805;51.542;7.230;2022-10-30T09:49:57;22.00;99.90
11497;DHT22;5805;51.542;7.230;2022-10-30T09:52:28;22.10;99.90
11497;DHT22;5805;51.542;7.230;2022-10-30T09:55:03;22.20;99.90
11497;DHT22;5805;51.542;7.230;2022-10-30T09:57:34;22.20;99.90
11497;DHT22;5805;51.542;7.230;2022-10-30T10:00:06;22.30;99.90
11497;DHT22;5805;51.542;7.230;2022-10-30T10:02:35;22.40;99.90
11497;DHT22;5805;51.542;7.230;2022-10-30T10:05:05;22.50;99.90
11497;DHT22;5805;51.542;7.230;2022-10-30T10:07:37;22.60;99.90
11497;DHT22;5805;51.542;7.230;2022-10-30T10:10:09;22.70;99.90
11497;DHT22;5805;51.542;7.230;2022-10-30T10:12:38;22.80;99.70
11497;DHT22;5805;51.542;7.230;2022-10-30T10:15:13;22.80;99.30
11497;DHT22;5805;51.542;7.230;2022-10-30T10:17:43;22.90;98.30
11497;DHT22;5805;51.542;7.230;2022-10-30T10:20:15;22.90;97.80
11497;DHT22;5805;51.542;7.230;2022-10-30T10:22:46;23.00;98.10
11497;DHT22;5805;51.542;7.230;2022-10-30T10:25:14;23.00;97.20
11497;DHT22;5805;51.542;7.230;2022-10-30T10:27:51;23.10;97.30
11497;DHT22;5805;51.542;7.230;2022-10-30T10:30:21;23.20;96.50
11497;DHT22;5805;51.542;7.230;2022-10-30T10:33:05;23.20;96.30
11497;DHT22;5805;51.542;7.230;2022-10-30T10:35:50;23.30;95.60
11497;DHT22;5805;51.542;7.230;2022-10-30T10:38:31;23.40;95.50
11497;DHT22;5805;51.542;7.230;2022-10-30T10:41:07;23.40;95.20
11497;DHT22;5805;51.542;7.230;2022-10-30T10:43:41;23.50;94.30
11497;DHT22;5805;51.542;7.230;2022-10-30T10:46:23;23.60;94.50
11497;DHT22;5805;51.542;7.230;2022-10-30T10:49:01;23.60;94.60
11497;DHT22;5805;51.542;7.230;2022-10-30T10:51:34;23.70;94.20
11497;DHT22;5805;51.542;7.230;2022-10-30T10:54:07;23.70;94.00
11497;DHT22;5805;51.542;7.230;2022-10-30T10:56:36;23.70;93.90
11497;DHT22;5805;51.542;7.230;2022-10-30T10:59:04;23.90;93.80
11497;DHT22;5805;51.542;7.230;2022-10-30T11:01:36;23.90;93.80
11497;DHT22;5805;51.542;7.230;2022-10-30T11:04:07;23.90;93.90
11497;DHT22;5805;51.542;7.230;2022-10-30T11:06:37;23.90;94.30
11497;DHT22;5805;51.542;7.230;2022-10-30T11:09:13;23.90;94.60
11497;DHT22;5805;51.542;7.230;2022-10-30T11:11:39;24.00;94.10
11497;DHT22;5805;51.542;7.230;2022-10-30T11:14:12;24.10;93.60
11497;DHT22;5805;51.542;7.230;2022-10-30T11:16:49;24.20;93.10
11497;DHT22;5805;51.542;7.230;2022-10-30T11:19:16;24.20;91.70
11497;DHT22;5805;51.542;7.230;2022-10-30T11:21:45;24.20;92.90
11497;DHT22;5805;51.542;7.230;2022-10-30T11:24:29;24.20;92.40
11497;DHT22;5805;51.542;7.230;2022-10-30T11:26:57;24.20;91.60
11497;DHT22;5805;51.542;7.230;2022-10-30T11:29:24;24.30;92.20
11497;DHT22;5805;51.542;7.230;2022-10-30T11:32:01;24.30;91.10
11497;DHT22;5805;51.542;7.230;2022-10-30T11:34:36;24.30;90.20
11497;DHT22;5805;51.542;7.230;2022-10-30T11:37:03;24.30;89.10
11497;DHT22;5805;51.542;7.230;2022-10-30T11:39:30;24.30;90.70
11497;DHT22;5805;51.542;7.230;2022-10-30T11:42:02;24.30;90.90
11497;DHT22;5805;51.542;7.230;2022-10-30T11:44:32;24.30;90.60
11497;DHT22;5805;51.542;7.230;2022-10-30T11:47:01;24.30;90.40
11497;DHT22;5805;51.542;7.230;2022-10-30T11:49:39;24.30;88.50
11497;DHT22;5805;51.542;7.230;2022-10-30T11:52:06;24.30;87.40
11497;DHT22;5805;51.542;7.230;2022-10-30T11:54:36;24.30;87.30
11497;DHT22;5805;51.542;7.230;2022-10-30T11:57:02;24.30;87.90
11497;DHT22;5805;51.542;7.230;2022-10-30T11:59:28;24.40;87.50
11497;DHT22;5805;51.542;7.230;2022-10-30T12:02:00;24.50;87.50
11497;DHT22;5805;51.542;7.230;2022-10-30T12:04:28;24.50;85.80
11497;DHT22;5805;51.542;7.230;2022-10-30T12:07:19;24.50;85.80
11497;DHT22;5805;51.542;7.230;2022-10-30T12:09:48;24.50;85.60
11497;DHT22;5805;51.542;7.230;2022-10-30T12:12:21;24.50;86.00
11497;DHT22;5805;51.542;7.230;2022-10-30T12:14:47;24.60;86.00
11497;DHT22;5805;51.542;7.230;2022-10-30T12:17:15;24.60;84.90
11497;DHT22;5805;51.542;7.230;2022-10-30T12:19:46;24.50;85.50
11497;DHT22;5805;51.542;7.230;2022-10-30T12:22:23;24.50;85.60
11497;DHT22;5805;51.542;7.230;2022-10-30T12:24:49;24.50;86.60
11497;DHT22;5805;51.542;7.230;2022-10-30T12:27:15;24.60;86.60
11497;DHT22;5805;51.542;7.230;2022-10-30T12:32:31;24.50;83.80
11497;DHT22;5805;51.542;7.230;2022-10-30T12:35:00;24.50;84.00
11497;DHT22;5805;51.542;7.230;2022-10-30T12:37:31;24.50;85.00
11497;DHT22;5805;51.542;7.230;2022-10-30T12:40:02;24.50;84.90
11497;DHT22;5805;51.542;7.230;2022-10-30T12:42:30;24.50;83.20
11497;DHT22;5805;51.542;7.230;2022-10-30T12:45:08;24.60;82.80
11497;DHT22;5805;51.542;7.230;2022-10-30T12:47:42;24.50;83.90
11497;DHT22;5805;51.542;7.230;2022-10-30T12:50:17;24.50;83.40
11497;DHT22;5805;51.542;7.230;2022-10-30T12:52:45;24.50;83.20
11497;DHT22;5805;51.542;7.230;2022-10-30T12:55:18;24.40;84.40
11497;DHT22;5805;51.542;7.230;2022-10-30T12:57:48;24.40;83.30
11497;DHT22;5805;51.542;7.230;2022-10-30T13:00:17;24.30;81.60
11497;DHT22;5805;51.542;7.230;2022-10-30T13:02:53;24.30;81.70
11497;DHT22;5805;51.542;7.230;2022-10-30T13:05:27;24.30;80.30
11497;DHT22;5805;51.542;7.230;2022-10-30T13:08:03;24.30;79.70
11497;DHT22;5805;51.542;7.230;2022-10-30T13:10:34;24.20;80.60
11497;DHT22;5805;51.542;7.230;2022-10-30T13:13:08;24.20;80.80
11497;DHT22;5805;51.542;7.230;2022-10-30T13:15:37;24.20;79.80
11497;DHT22;5805;51.542;7.230;2022-10-30T13:18:14;24.20;80.10
11497;DHT22;5805;51.542;7.230;2022-10-30T13:20:41;24.20;80.70
11497;DHT22;5805;51.542;7.230;2022-10-30T13:23:10;24.20;80.70
11497;DHT22;5805;51.542;7.230;2022-10-30T13:25:45;24.20;80.40
11497;DHT22;5805;51.542;7.230;2022-10-30T13:28:21;24.30;79.90
11497;DHT22;5805;51.542;7.230;2022-10-30T13:30:57;24.30;79.60
11497;DHT22;5805;51.542;7.230;2022-10-30T13:33:27;24.30;78.60
11497;DHT22;5805;51.542;7.230;2022-10-30T13:36:01;24.30;78.90
11497;DHT22;5805;51.542;7.230;2022-10-30T13:38:42;24.30;78.80
11497;DHT22;5805;51.542;7.230;2022-10-30T13:41:15;24.30;79.60
11497;DHT22;5805;51.542;7.230;2022-10-30T13:43:50;24.30;80.00
11497;DHT22;5805;51.542;7.230;2022-10-30T13:46:28;24.30;79.70
11497;DHT22;5805;51.542;7.230;2022-10-30T13:49:08;24.30;79.00
11497;DHT22;5805;51.542;7.230;2022-10-30T13:51:40;24.30;79.40
11497;DHT22;5805;51.542;7.230;2022-10-30T13:54:17;24.20;79.50
11497;DHT22;5805;51.542;7.230;2022-10-30T13:56:45;24.20;80.10
11497;DHT22;5805;51.542;7.230;2022-10-30T13:59:27;24.20;80.70
11497;DHT22;5805;51.542;7.230;2022-10-30T14:02:00;24.20;80.30
11497;DHT22;5805;51.542;7.230;2022-10-30T14:04:34;24.10;80.40
11497;DHT22;5805;51.542;7.230;2022-10-30T14:07:16;24.10;81.00
11497;DHT22;5805;51.542;7.230;2022-10-30T14:09:54;24.00;81.10
11497;DHT22;5805;51.542;7.230;2022-10-30T14:12:49;24.00;82.20
11497;DHT22;5805;51.542;7.230;2022-10-30T14:15:24;24.00;83.20
11497;DHT22;5805;51.542;7.230;2022-10-30T14:18:25;23.90;83.50
11497;DHT22;5805;51.542;7.230;2022-10-30T14:20:55;23.90;84.70
11497;DHT22;5805;51.542;7.230;2022-10-30T14:23:22;23.80;85.40
11497;DHT22;5805;51.542;7.230;2022-10-30T14:26:11;23.70;86.30
11497;DHT22;5805;51.542;7.230;2022-10-30T14:28:38;23.70;87.80
11497;DHT22;5805;51.542;7.230;2022-10-30T14:31:06;23.70;88.00
11497;DHT22;5805;51.542;7.230;2022-10-30T14:33:37;23.70;88.80
11497;DHT22;5805;51.542;7.230;2022-10-30T14:36:16;23.70;89.10
11497;DHT22;5805;51.542;7.230;2022-10-30T14:38:51;23.60;90.00
11497;DHT22;5805;51.542;7.230;2022-10-30T14:41:47;23.60;90.20
11497;DHT22;5805;51.542;7.230;2022-10-30T14:44:26;23.60;90.40
11497;DHT22;5805;51.542;7.230;2022-10-30T14:50:16;23.50;91.10
11497;DHT22;5805;51.542;7.230;2022-10-30T14:52:59;23.50;91.20
11497;DHT22;5805;51.542;7.230;2022-10-30T14:55:29;23.50;91.40
11497;DHT22;5805;51.542;7.230;2022-10-30T14:58:16;23.40;91.50
11497;DHT22;5805;51.542;7.230;2022-10-30T15:00:44;23.40;91.90
11497;DHT22;5805;51.542;7.230;2022-10-30T15:03:16;23.30;92.30
11497;DHT22;5805;51.542;7.230;2022-10-30T15:05:45;23.30;92.30
11497;DHT22;5805;51.542;7.230;2022-10-30T15:08:26;23.20;92.30
11497;DHT22;5805;51.542;7.230;2022-10-30T15:13:47;23.10;92.70
11497;DHT22;5805;51.542;7.230;2022-10-30T15:16:15;23.10;93.30
11497;DHT22;5805;51.542;7.230;2022-10-30T15:18:44;23.00;94.10
11497;DHT22;5805;51.542;7.230;2022-10-30T15:21:13;23.00;94.60
11497;DHT22;5805;51.542;7.230;2022-10-30T15:23:44;22.90;95.70
11497;DHT22;5805;51.542;7.230;2022-10-30T15:26:18;22.80;96.20
11497;DHT22;5805;51.542;7.230;2022-10-30T15:28:48;22.80;97.00
11497;DHT22;5805;51.542;7.230;2022-10-30T15:31:20;22.70;97.60
11497;DHT22;5805;51.542;7.230;2022-10-30T15:33:46;22.60;98.90
11497;DHT22;5805;51.542;7.230;2022-10-30T15:36:16;22.60;99.20
11497;DHT22;5805;51.542;7.230;2022-10-30T15:38:43;22.50;99.90
11497;DHT22;5805;51.542;7.230;2022-10-30T15:41:09;22.50;99.90
11497;DHT22;5805;51.542;7.230;2022-10-30T15:43:38;22.50;99.90
11497;DHT22;5805;51.542;7.230;2022-10-30T15:46:08;22.40;99.90
11497;DHT22;5805;51.542;7.230;2022-10-30T15:48:34;22.30;99.90
11497;DHT22;5805;51.542;7.230;2022-10-30T15:51:03;22.20;99.90
11497;DHT22;5805;51.542;7.230;2022-10-30T15:53:35;22.20;99.90
11497;DHT22;5805;51.542;7.230;2022-10-30T15:56:04;22.10;99.90
11497;DHT22;5805;51.542;7.230;2022-10-30T15:58:33;22.00;99.90
11497;DHT22;5805;51.542;7.230;2022-10-30T16:01:01;22.00;99.90
11497;DHT22;5805;51.542;7.230;2022-10-30T16:03:27;21.90;99.90
11497;DHT22;5805;51.542;7.230;2022-10-30T16:06:03;21.90;99.90